sensor_id;sensor_type;location;lat;lon;timestamp;temperature;humidity
33328;DHT22;19692;52.998;9.116;2023-04-25T00:02:21;7.60;99.90
33328;DHT22;19692;52.998;9.116;2023-04-25T00:04:47;7.50;99.90
33328;DHT22;19692;52.998;9.116;2023-04-25T00:07:15;7.50;99.90
33328;DHT22;19692;52.998;9.116;2023-04-25T00:09:41;7.40;99.90
33328;DHT22;19692;52.998;9.116;2023-04-25T00:12:07;7.40;99.90
33328;DHT22;19692;52.998;9.116;2023-04-25T00:14:33;7.30;99.90
33328;DHT22;19692;52.998;9.116;2023-04-25T00:17:01;7.20;99.90
33328;DHT22;19692;52.998;9.116;2023-04-25T00:19:28;7.10;99.90
33328;DHT22;19692;52.998;9.116;2023-04-25T00:21:55;7.00;99.90
33328;DHT22;19692;52.998;9.116;2023-04-25T00:24:21;6.90;99.90
33328;DHT22;19692;52.998;9.116;2023-04-25T00:26:46;6.90;99.90
33328;DHT22;19692;52.998;9.116;2023-04-25T00:29:12;6.90;99.90
33328;DHT22;19692;52.998;9.116;2023-04-25T00:31:38;7.00;99.90
33328;DHT22;19692;52.998;9.116;2023-04-25T00:34:05;7.00;99.90
33328;DHT22;19692;52.998;9.116;2023-04-25T00:36:31;6.90;99.90
33328;DHT22;19692;52.998;9.116;2023-04-25T00:38:57;6.90;99.90
33328;DHT22;19692;52.998;9.116;2023-04-25T00:41:25;6.90;99.90
33328;DHT22;19692;52.998;9.116;2023-04-25T00:43:52;6.80;99.90
33328;DHT22;19692;52.998;9.116;2023-04-25T00:46:19;6.80;99.90
33328;DHT22;19692;52.998;9.116;2023-04-25T00:48:45;6.80;99.90
33328;DHT22;19692;52.998;9.116;2023-04-25T00:51:14;6.80;99.90
33328;DHT22;19692;52.998;9.116;2023-04-25T00:53:42;6.80;99.90
33328;DHT22;19692;52.998;9.116;2023-04-25T00:56:08;6.80;99.90
33328;DHT22;19692;52.998;9.116;2023-04-25T00:58:33;6.90;99.90
33328;DHT22;19692;52.998;9.116;2023-04-25T01:01:00;6.90;99.90
33328;DHT22;19692;52.998;9.116;2023-04-25T01:03:26;6.80;99.90
33328;DHT22;19692;52.998;9.116;2023-04-25T01:05:54;6.80;99.90
33328;DHT22;19692;52.998;9.116;2023-04-25T01:08:21;6.70;99.90
33328;DHT22;19692;52.998;9.116;2023-04-25T01:10:48;6.70;99.90
33328;DHT22;19692;52.998;9.116;2023-04-25T01:13:14;6.70;99.90
33328;DHT22;19692;52.998;9.116;2023-04-25T01:15:40;6.70;99.90
33328;DHT22;19692;52.998;9.116;2023-04-25T01:18:06;6.70;99.90
33328;DHT22;19692;52.998;9.116;2023-04-25T01:20:33;6.70;99.90
33328;DHT22;19692;52.998;9.116;2023-04-25T01:22:59;6.60;99.90
33328;DHT22;19692;52.998;9.116;2023-04-25T01:25:27;6.60;99.90
33328;DHT22;19692;52.998;9.116;2023-04-25T01:27:53;6.60;99.90
33328;DHT22;19692;52.998;9.116;2023-04-25T01:30:19;6.50;99.90
33328;DHT22;19692;52.998;9.116;2023-04-25T01:32:45;6.40;99.90
33328;DHT22;19692;52.998;9.116;2023-04-25T01:35:11;6.40;99.90
33328;DHT22;19692;52.998;9.116;2023-04-25T01:37:41;6.30;99.90
33328;DHT22;19692;52.998;9.116;2023-04-25T01:40:10;6.40;99.90
33328;DHT22;19692;52.998;9.116;2023-04-25T01:42:38;6.30;99.90
33328;DHT22;19692;52.998;9.116;2023-04-25T01:45:06;6.30;99.90
33328;DHT22;19692;52.998;9.116;2023-04-25T01:47:32;6.30;99.90
33328;DHT22;19692;52.998;9.116;2023-04-25T01:50:01;6.40;99.90
33328;DHT22;19692;52.998;9.116;2023-04-25T01:52:27;6.30;99.90
33328;DHT22;19692;52.998;9.116;2023-04-25T01:54:53;6.20;99.90
33328;DHT22;19692;52.998;9.116;2023-04-25T01:57:19;6.30;99.90
33328;DHT22;19692;52.998;9.116;2023-04-25T01:59:45;6.30;99.90
33328;DHT22;19692;52.998;9.116;2023-04-25T02:02:11;6.20;99.90
33328;DHT22;19692;52.998;9.116;2023-04-25T02:04:37;6.30;99.90
33328;DHT22;19692;52.998;9.116;2023-04-25T02:07:03;6.30;99.90
33328;DHT22;19692;52.998;9.116;2023-04-25T02:09:29;6.30;99.90
33328;DHT22;19692;52.998;9.116;2023-04-25T02:11:55;6.30;99.90
33328;DHT22;19692;52.998;9.116;2023-04-25T02:14:21;6.30;99.90
33328;DHT22;19692;52.998;9.116;2023-04-25T02:16:46;6.30;99.90
33328;DHT22;19692;52.998;9.116;2023-04-25T02:19:12;6.30;99.90
33328;DHT22;19692;52.998;9.116;2023-04-25T02:21:38;6.30;99.90
33328;DHT22;19692;52.998;9.116;2023-04-25T02:24:04;6.20;99.90
33328;DHT22;19692;52.998;9.116;2023-04-25T02:26:30;6.20;99.90
33328;DHT22;19692;52.998;9.116;2023-04-25T02:28:57;6.20;99.90
33328;DHT22;19692;52.998;9.116;2023-04-25T02:31:22;6.20;99.90
33328;DHT22;19692;52.998;9.116;2023-04-25T02:33:48;6.20;99.90
33328;DHT22;19692;52.998;9.116;2023-04-25T02:36:14;6.10;99.90
33328;DHT22;19692;52.998;9.116;2023-04-25T02:38:40;6.20;99.90
33328;DHT22;19692;52.998;9.116;2023-04-25T02:41:06;6.20;99.90
33328;DHT22;19692;52.998;9.116;2023-04-25T02:43:32;6.20;99.90
33328;DHT22;19692;52.998;9.116;2023-04-25T02:45:57;6.20;99.90
33328;DHT22;19692;52.998;9.116;2023-04-25T02:48:23;6.20;99.90
33328;DHT22;19692;52.998;9.116;2023-04-25T02:50:49;6.20;99.90
33328;DHT22;19692;52.998;9.116;2023-04-25T02:53:14;6.10;99.90
33328;DHT22;19692;52.998;9.116;2023-04-25T02:55:40;6.10;99.90
33328;DHT22;19692;52.998;9.116;2023-04-25T02:58:06;6.00;99.90
33328;DHT22;19692;52.998;9.116;2023-04-25T03:00:32;6.00;99.90
33328;DHT22;19692;52.998;9.116;2023-04-25T03:02:58;6.00;99.90
33328;DHT22;19692;52.998;9.116;2023-04-25T03:05:24;5.90;99.90
33328;DHT22;19692;52.998;9.116;2023-04-25T03:07:49;5.90;99.90
33328;DHT22;19692;52.998;9.116;2023-04-25T03:10:15;5.90;99.90
33328;DHT22;19692;52.998;9.116;2023-04-25T03:12:41;5.90;99.90
33328;DHT22;19692;52.998;9.116;2023-04-25T03:15:07;5.80;99.90
33328;DHT22;19692;52.998;9.116;2023-04-25T03:17:33;5.80;99.90
33328;DHT22;19692;52.998;9.116;2023-04-25T03:19:59;5.70;99.90
33328;DHT22;19692;52.998;9.116;2023-04-25T03:22:25;5.70;99.90
33328;DHT22;19692;52.998;9.116;2023-04-25T03:24:50;5.60;99.90
33328;DHT22;19692;52.998;9.116;2023-04-25T03:27:17;5.70;99.90
33328;DHT22;19692;52.998;9.116;2023-04-25T03:29:43;5.70;99.90
33328;DHT22;19692;52.998;9.116;2023-04-25T03:32:08;5.70;99.90
33328;DHT22;19692;52.998;9.116;2023-04-25T03:34:34;5.80;99.90
33328;DHT22;19692;52.998;9.116;2023-04-25T03:37:00;5.80;99.90
33328;DHT22;19692;52.998;9.116;2023-04-25T03:39:26;5.90;99.90
33328;DHT22;19692;52.998;9.116;2023-04-25T03:41:52;5.90;99.90
33328;DHT22;19692;52.998;9.116;2023-04-25T03:44:18;5.90;99.90
33328;DHT22;19692;52.998;9.116;2023-04-25T03:46:44;5.80;99.90
33328;DHT22;19692;52.998;9.116;2023-04-25T03:49:09;5.90;99.90
33328;DHT22;19692;52.998;9.116;2023-04-25T03:51:35;6.00;99.90
33328;DHT22;19692;52.998;9.116;2023-04-25T03:54:01;5.90;99.90
33328;DHT22;19692;52.998;9.116;2023-04-25T03:56:27;5.90;99.90
33328;DHT22;19692;52.998;9.116;2023-04-25T03:58:52;5.90;99.90
33328;DHT22;19692;52.998;9.116;2023-04-25T04:01:18;5.90;99.90
33328;DHT22;19692;52.998;9.116;2023-04-25T04:03:44;5.90;99.90
33328;DHT22;19692;52.998;9.116;2023-04-25T04:06:10;5.90;99.90
33328;DHT22;19692;52.998;9.116;2023-04-25T04:08:36;5.90;99.90
33328;DHT22;19692;52.998;9.116;2023-04-25T04:11:02;5.90;99.90
33328;DHT22;19692;52.998;9.116;2023-04-25T04:13:28;5.90;99.90
33328;DHT22;19692;52.998;9.116;2023-04-25T04:15:55;5.90;99.90
33328;DHT22;19692;52.998;9.116;2023-04-25T04:18:21;5.90;99.90
33328;DHT22;19692;52.998;9.116;2023-04-25T04:20:47;5.90;99.90
33328;DHT22;19692;52.998;9.116;2023-04-25T04:23:13;5.90;99.90
33328;DHT22;19692;52.998;9.116;2023-04-25T04:25:39;5.80;99.90
33328;DHT22;19692;52.998;9.116;2023-04-25T04:28:06;5.80;99.90
33328;DHT22;19692;52.998;9.116;2023-04-25T04:30:32;5.80;99.90
33328;DHT22;19692;52.998;9.116;2023-04-25T04:33:02;5.80;99.90
33328;DHT22;19692;52.998;9.116;2023-04-25T04:35:27;5.80;99.90
33328;DHT22;19692;52.998;9.116;2023-04-25T04:37:54;5.80;99.90
33328;DHT22;19692;52.998;9.116;2023-04-25T04:40:20;5.80;99.90
33328;DHT22;19692;52.998;9.116;2023-04-25T04:42:47;5.80;99.90
33328;DHT22;19692;52.998;9.116;2023-04-25T04:45:13;5.70;99.90
33328;DHT22;19692;52.998;9.116;2023-04-25T04:47:39;5.70;99.90
33328;DHT22;19692;52.998;9.116;2023-04-25T04:50:09;5.70;99.90
33328;DHT22;19692;52.998;9.116;2023-04-25T04:52:36;5.60;99.90
33328;DHT22;19692;52.998;9.116;2023-04-25T04:55:03;5.70;99.90
33328;DHT22;19692;52.998;9.116;2023-04-25T04:57:30;5.60;99.90
33328;DHT22;19692;52.998;9.116;2023-04-25T04:59:58;5.60;99.90
33328;DHT22;19692;52.998;9.116;2023-04-25T05:02:24;5.60;99.90
33328;DHT22;19692;52.998;9.116;2023-04-25T05:04:51;5.60;99.90
33328;DHT22;19692;52.998;9.116;2023-04-25T05:07:17;5.60;99.90
33328;DHT22;19692;52.998;9.116;2023-04-25T05:09:43;5.70;99.90
33328;DHT22;19692;52.998;9.116;2023-04-25T05:12:09;5.70;99.90
33328;DHT22;19692;52.998;9.116;2023-04-25T05:14:35;5.80;99.90
33328;DHT22;19692;52.998;9.116;2023-04-25T05:17:01;5.80;99.90
33328;DHT22;19692;52.998;9.116;2023-04-25T05:19:28;5.80;99.90
33328;DHT22;19692;52.998;9.116;2023-04-25T05:21:54;5.90;99.90
33328;DHT22;19692;52.998;9.116;2023-04-25T05:24:20;5.90;99.90
33328;DHT22;19692;52.998;9.116;2023-04-25T05:26:46;5.90;99.90
33328;DHT22;19692;52.998;9.116;2023-04-25T05:29:11;5.90;99.90
33328;DHT22;19692;52.998;9.116;2023-04-25T05:31:38;5.90;99.90
33328;DHT22;19692;52.998;9.116;2023-04-25T05:34:03;5.90;99.90
33328;DHT22;19692;52.998;9.116;2023-04-25T05:36:29;5.90;99.90
33328;DHT22;19692;52.998;9.116;2023-04-25T05:38:56;6.00;99.90
33328;DHT22;19692;52.998;9.116;2023-04-25T05:41:22;6.00;99.90
33328;DHT22;19692;52.998;9.116;2023-04-25T05:43:47;6.00;99.90
33328;DHT22;19692;52.998;9.116;2023-04-25T05:46:15;6.10;99.90
33328;DHT22;19692;52.998;9.116;2023-04-25T05:48:43;6.00;99.90
33328;DHT22;19692;52.998;9.116;2023-04-25T05:51:09;6.00;99.90
33328;DHT22;19692;52.998;9.116;2023-04-25T05:53:35;6.00;99.90
33328;DHT22;19692;52.998;9.116;2023-04-25T05:56:01;6.10;99.90
33328;DHT22;19692;52.998;9.116;2023-04-25T05:58:28;6.10;99.90
33328;DHT22;19692;52.998;9.116;2023-04-25T06:00:54;6.10;99.90
33328;DHT22;19692;52.998;9.116;2023-04-25T06:03:20;6.20;99.90
33328;DHT22;19692;52.998;9.116;2023-04-25T06:05:46;6.30;99.90
33328;DHT22;19692;52.998;9.116;2023-04-25T06:08:12;6.40;99.90
33328;DHT22;19692;52.998;9.116;2023-04-25T06:10:38;6.40;99.90
33328;DHT22;19692;52.998;9.116;2023-04-25T06:13:04;6.60;99.90
33328;DHT22;19692;52.998;9.116;2023-04-25T06:15:30;6.60;99.90
33328;DHT22;19692;52.998;9.116;2023-04-25T06:17:57;6.60;99.90
33328;DHT22;19692;52.998;9.116;2023-04-25T06:20:23;6.50;99.90
33328;DHT22;19692;52.998;9.116;2023-04-25T06:22:50;6.70;99.90
33328;DHT22;19692;52.998;9.116;2023-04-25T06:25:19;6.60;99.90
33328;DHT22;19692;52.998;9.116;2023-04-25T06:27:45;6.60;99.90
33328;DHT22;19692;52.998;9.116;2023-04-25T06:30:11;6.70;99.90
33328;DHT22;19692;52.998;9.116;2023-04-25T06:32:38;6.70;99.90
33328;DHT22;19692;52.998;9.116;2023-04-25T06:35:04;6.80;99.90
33328;DHT22;19692;52.998;9.116;2023-04-25T06:37:31;6.80;99.90
33328;DHT22;19692;52.998;9.116;2023-04-25T06:39:56;6.90;99.90
33328;DHT22;19692;52.998;9.116;2023-04-25T06:42:22;6.90;99.90
33328;DHT22;19692;52.998;9.116;2023-04-25T06:44:48;7.00;99.90
33328;DHT22;19692;52.998;9.116;2023-04-25T06:47:14;7.10;99.90
33328;DHT22;19692;52.998;9.116;2023-04-25T06:49:40;7.10;99.90
33328;DHT22;19692;52.998;9.116;2023-04-25T06:52:05;7.30;99.90
33328;DHT22;19692;52.998;9.116;2023-04-25T06:54:32;7.30;99.90
33328;DHT22;19692;52.998;9.116;2023-04-25T06:56:57;7.50;99.90
33328;DHT22;19692;52.998;9.116;2023-04-25T06:59:23;7.60;99.90
33328;DHT22;19692;52.998;9.116;2023-04-25T07:01:49;7.70;99.90
33328;DHT22;19692;52.998;9.116;2023-04-25T07:04:15;7.60;99.90
33328;DHT22;19692;52.998;9.116;2023-04-25T07:06:40;7.80;99.90
33328;DHT22;19692;52.998;9.116;2023-04-25T07:09:11;7.90;99.90
33328;DHT22;19692;52.998;9.116;2023-04-25T07:11:37;7.80;99.90
33328;DHT22;19692;52.998;9.116;2023-04-25T07:14:03;7.50;99.90
33328;DHT22;19692;52.998;9.116;2023-04-25T07:16:29;7.50;99.90
33328;DHT22;19692;52.998;9.116;2023-04-25T07:18:55;7.40;99.90
33328;DHT22;19692;52.998;9.116;2023-04-25T07:21:21;7.40;99.90
33328;DHT22;19692;52.998;9.116;2023-04-25T07:23:46;7.30;99.90
33328;DHT22;19692;52.998;9.116;2023-04-25T07:26:13;7.20;99.90
33328;DHT22;19692;52.998;9.116;2023-04-25T07:28:38;7.10;99.90
33328;DHT22;19692;52.998;9.116;2023-04-25T07:31:04;7.10;99.90
33328;DHT22;19692;52.998;9.116;2023-04-25T07:33:30;7.10;99.90
33328;DHT22;19692;52.998;9.116;2023-04-25T07:35:56;7.20;99.90
33328;DHT22;19692;52.998;9.116;2023-04-25T07:38:22;7.20;99.90
33328;DHT22;19692;52.998;9.116;2023-04-25T07:40:51;7.10;99.90
33328;DHT22;19692;52.998;9.116;2023-04-25T07:43:17;7.00;99.90
33328;DHT22;19692;52.998;9.116;2023-04-25T07:45:46;7.10;99.90
33328;DHT22;19692;52.998;9.116;2023-04-25T07:48:17;7.30;99.90
33328;DHT22;19692;52.998;9.116;2023-04-25T07:50:44;7.40;99.90
33328;DHT22;19692;52.998;9.116;2023-04-25T07:53:09;7.50;99.90
33328;DHT22;19692;52.998;9.116;2023-04-25T07:55:35;7.60;99.90
33328;DHT22;19692;52.998;9.116;2023-04-25T07:58:01;7.60;99.90
33328;DHT22;19692;52.998;9.116;2023-04-25T08:00:28;7.40;99.90
33328;DHT22;19692;52.998;9.116;2023-04-25T08:02:54;7.40;99.90
33328;DHT22;19692;52.998;9.116;2023-04-25T08:05:20;7.50;99.90
33328;DHT22;19692;52.998;9.116;2023-04-25T08:07:46;7.80;99.90
33328;DHT22;19692;52.998;9.116;2023-04-25T08:10:11;8.00;99.90
33328;DHT22;19692;52.998;9.116;2023-04-25T08:12:37;8.20;99.90
33328;DHT22;19692;52.998;9.116;2023-04-25T08:15:04;8.40;99.90
33328;DHT22;19692;52.998;9.116;2023-04-25T08:17:30;8.30;99.90
33328;DHT22;19692;52.998;9.116;2023-04-25T08:19:56;8.10;99.90
33328;DHT22;19692;52.998;9.116;2023-04-25T08:22:22;8.10;99.90
33328;DHT22;19692;52.998;9.116;2023-04-25T08:24:48;8.10;99.90
33328;DHT22;19692;52.998;9.116;2023-04-25T08:27:14;8.10;99.90
33328;DHT22;19692;52.998;9.116;2023-04-25T08:29:41;8.10;99.90
33328;DHT22;19692;52.998;9.116;2023-04-25T08:32:07;8.10;99.90
33328;DHT22;19692;52.998;9.116;2023-04-25T08:34:33;7.90;99.90
33328;DHT22;19692;52.998;9.116;2023-04-25T08:36:59;7.80;99.90
33328;DHT22;19692;52.998;9.116;2023-04-25T08:39:25;7.60;99.90
33328;DHT22;19692;52.998;9.116;2023-04-25T08:41:51;7.40;99.90
33328;DHT22;19692;52.998;9.116;2023-04-25T08:44:19;7.40;99.90
33328;DHT22;19692;52.998;9.116;2023-04-25T08:46:47;7.30;99.90
33328;DHT22;19692;52.998;9.116;2023-04-25T08:49:16;7.40;99.90
33328;DHT22;19692;52.998;9.116;2023-04-25T08:51:47;7.50;99.90
33328;DHT22;19692;52.998;9.116;2023-04-25T08:54:13;7.40;99.90
33328;DHT22;19692;52.998;9.116;2023-04-25T08:56:44;6.90;99.90
33328;DHT22;19692;52.998;9.116;2023-04-25T08:59:11;6.60;99.90
33328;DHT22;19692;52.998;9.116;2023-04-25T09:01:37;6.50;99.90
33328;DHT22;19692;52.998;9.116;2023-04-25T09:04:03;6.40;99.90
33328;DHT22;19692;52.998;9.116;2023-04-25T09:06:30;6.50;99.90
33328;DHT22;19692;52.998;9.116;2023-04-25T09:09:02;6.50;99.90
33328;DHT22;19692;52.998;9.116;2023-04-25T09:11:29;6.60;99.90
33328;DHT22;19692;52.998;9.116;2023-04-25T09:14:12;6.70;99.90
33328;DHT22;19692;52.998;9.116;2023-04-25T09:19:29;7.00;99.90
33328;DHT22;19692;52.998;9.116;2023-04-25T09:22:00;7.20;99.90
33328;DHT22;19692;52.998;9.116;2023-04-25T09:24:35;7.50;99.90
33328;DHT22;19692;52.998;9.116;2023-04-25T09:27:07;7.80;99.90
33328;DHT22;19692;52.998;9.116;2023-04-25T09:29:37;7.90;99.90
33328;DHT22;19692;52.998;9.116;2023-04-25T09:32:23;8.00;99.90
33328;DHT22;19692;52.998;9.116;2023-04-25T09:34:53;8.30;99.90
33328;DHT22;19692;52.998;9.116;2023-04-25T09:39:59;9.40;99.90
33328;DHT22;19692;52.998;9.116;2023-04-25T09:42:29;9.80;99.90
33328;DHT22;19692;52.998;9.116;2023-04-25T09:44:57;9.80;99.90
33328;DHT22;19692;52.998;9.116;2023-04-25T09:47:25;9.70;99.90
33328;DHT22;19692;52.998;9.116;2023-04-25T09:49:53;9.70;99.90
33328;DHT22;19692;52.998;9.116;2023-04-25T09:52:24;9.70;99.90
33328;DHT22;19692;52.998;9.116;2023-04-25T09:54:51;9.60;99.90
33328;DHT22;19692;52.998;9.116;2023-04-25T09:59:52;9.30;99.90
33328;DHT22;19692;52.998;9.116;2023-04-25T10:02:26;8.80;99.90
33328;DHT22;19692;52.998;9.116;2023-04-25T10:04:54;8.60;99.90
33328;DHT22;19692;52.998;9.116;2023-04-25T10:07:25;7.90;99.90
33328;DHT22;19692;52.998;9.116;2023-04-25T10:10:03;7.60;99.90
33328;DHT22;19692;52.998;9.116;2023-04-25T10:12:30;7.10;99.90
33328;DHT22;19692;52.998;9.116;2023-04-25T10:14:59;6.90;99.90
33328;DHT22;19692;52.998;9.116;2023-04-25T10:17:26;7.00;99.90
33328;DHT22;19692;52.998;9.116;2023-04-25T10:19:54;7.20;99.90
33328;DHT22;19692;52.998;9.116;2023-04-25T10:22:31;7.40;99.90
33328;DHT22;19692;52.998;9.116;2023-04-25T10:24:58;7.90;99.90
33328;DHT22;19692;52.998;9.116;2023-04-25T10:27:27;8.40;99.90
33328;DHT22;19692;52.998;9.116;2023-04-25T10:30:05;8.70;99.90
33328;DHT22;19692;52.998;9.116;2023-04-25T10:32:35;9.30;99.90
33328;DHT22;19692;52.998;9.116;2023-04-25T10:35:16;9.80;99.90
33328;DHT22;19692;52.998;9.116;2023-04-25T10:38:03;9.90;99.90
33328;DHT22;19692;52.998;9.116;2023-04-25T10:40:33;10.40;99.90
33328;DHT22;19692;52.998;9.116;2023-04-25T10:45:56;10.70;99.90
33328;DHT22;19692;52.998;9.116;2023-04-25T10:48:31;10.80;99.90
33328;DHT22;19692;52.998;9.116;2023-04-25T10:51:10;11.10;99.90
33328;DHT22;19692;52.998;9.116;2023-04-25T10:53:37;11.10;99.90
33328;DHT22;19692;52.998;9.116;2023-04-25T10:56:11;10.50;99.90
33328;DHT22;19692;52.998;9.116;2023-04-25T10:58:42;10.00;99.90
33328;DHT22;19692;52.998;9.116;2023-04-25T11:01:08;9.90;99.90
33328;DHT22;19692;52.998;9.116;2023-04-25T11:03:41;9.80;99.90
33328;DHT22;19692;52.998;9.116;2023-04-25T11:06:22;9.80;99.90
33328;DHT22;19692;52.998;9.116;2023-04-25T11:08:57;10.00;99.90
33328;DHT22;19692;52.998;9.116;2023-04-25T11:11:25;9.80;99.90
33328;DHT22;19692;52.998;9.116;2023-04-25T11:13:51;9.90;99.90
33328;DHT22;19692;52.998;9.116;2023-04-25T11:16:18;9.70;99.90
33328;DHT22;19692;52.998;9.116;2023-04-25T11:18:44;10.00;99.90
33328;DHT22;19692;52.998;9.116;2023-04-25T11:21:10;10.40;99.90
33328;DHT22;19692;52.998;9.116;2023-04-25T11:23:36;10.80;99.90
33328;DHT22;19692;52.998;9.116;2023-04-25T11:26:03;10.90;99.90
33328;DHT22;19692;52.998;9.116;2023-04-25T11:28:29;11.00;99.90
33328;DHT22;19692;52.998;9.116;2023-04-25T11:30:55;11.10;99.90
33328;DHT22;19692;52.998;9.116;2023-04-25T11:33:25;11.10;99.90
33328;DHT22;19692;52.998;9.116;2023-04-25T11:35:54;11.10;99.90
33328;DHT22;19692;52.998;9.116;2023-04-25T11:38:22;10.80;99.90
33328;DHT22;19692;52.998;9.116;2023-04-25T11:40:54;10.80;99.90
33328;DHT22;19692;52.998;9.116;2023-04-25T11:43:22;10.70;99.90
33328;DHT22;19692;52.998;9.116;2023-04-25T11:45:49;10.20;99.90
33328;DHT22;19692;52.998;9.116;2023-04-25T11:48:16;10.00;99.90
33328;DHT22;19692;52.998;9.116;2023-04-25T11:50:42;8.80;99.90
33328;DHT22;19692;52.998;9.116;2023-04-25T11:53:08;7.90;99.90
33328;DHT22;19692;52.998;9.116;2023-04-25T11:55:34;7.50;99.90
33328;DHT22;19692;52.998;9.116;2023-04-25T11:58:00;7.10;99.90
33328;DHT22;19692;52.998;9.116;2023-04-25T12:00:27;7.00;99.90
33328;DHT22;19692;52.998;9.116;2023-04-25T12:02:54;7.00;99.90
33328;DHT22;19692;52.998;9.116;2023-04-25T12:05:25;6.90;99.90
33328;DHT22;19692;52.998;9.116;2023-04-25T12:07:54;6.40;99.90
33328;DHT22;19692;52.998;9.116;2023-04-25T12:10:21;6.20;99.90
33328;DHT22;19692;52.998;9.116;2023-04-25T12:12:48;6.00;99.90
33328;DHT22;19692;52.998;9.116;2023-04-25T12:15:15;6.10;99.90
33328;DHT22;19692;52.998;9.116;2023-04-25T12:17:46;6.30;99.90
33328;DHT22;19692;52.998;9.116;2023-04-25T12:20:18;6.50;99.90
33328;DHT22;19692;52.998;9.116;2023-04-25T12:22:46;6.80;99.90
33328;DHT22;19692;52.998;9.116;2023-04-25T12:25:34;7.10;99.90
33328;DHT22;19692;52.998;9.116;2023-04-25T12:28:19;7.30;99.90
33328;DHT22;19692;52.998;9.116;2023-04-25T12:31:00;7.60;99.90
33328;DHT22;19692;52.998;9.116;2023-04-25T12:33:34;7.90;99.90
33328;DHT22;19692;52.998;9.116;2023-04-25T12:36:02;8.10;99.90
33328;DHT22;19692;52.998;9.116;2023-04-25T12:38:36;8.20;99.90
33328;DHT22;19692;52.998;9.116;2023-04-25T12:41:03;8.20;99.90
33328;DHT22;19692;52.998;9.116;2023-04-25T12:43:29;8.40;99.90
33328;DHT22;19692;52.998;9.116;2023-04-25T12:45:56;8.50;99.90
33328;DHT22;19692;52.998;9.116;2023-04-25T12:48:22;8.50;99.90
33328;DHT22;19692;52.998;9.116;2023-04-25T12:50:49;9.30;99.90
33328;DHT22;19692;52.998;9.116;2023-04-25T12:53:16;9.80;99.90
33328;DHT22;19692;52.998;9.116;2023-04-25T12:55:43;9.70;99.90
33328;DHT22;19692;52.998;9.116;2023-04-25T12:58:11;9.50;99.90
33328;DHT22;19692;52.998;9.116;2023-04-25T13:00:37;9.30;99.90
33328;DHT22;19692;52.998;9.116;2023-04-25T13:03:03;9.20;99.90
33328;DHT22;19692;52.998;9.116;2023-04-25T13:05:30;9.10;99.90
33328;DHT22;19692;52.998;9.116;2023-04-25T13:07:56;8.90;99.90
33328;DHT22;19692;52.998;9.116;2023-04-25T13:10:22;8.90;99.90
33328;DHT22;19692;52.998;9.116;2023-04-25T13:12:48;9.30;99.90
33328;DHT22;19692;52.998;9.116;2023-04-25T13:15:13;9.80;99.90
33328;DHT22;19692;52.998;9.116;2023-04-25T13:17:41;10.40;99.90
33328;DHT22;19692;52.998;9.116;2023-04-25T13:20:08;10.20;99.90
33328;DHT22;19692;52.998;9.116;2023-04-25T13:22:38;10.10;99.90
33328;DHT22;19692;52.998;9.116;2023-04-25T13:25:06;10.20;99.90
33328;DHT22;19692;52.998;9.116;2023-04-25T13:27:33;10.60;99.90
33328;DHT22;19692;52.998;9.116;2023-04-25T13:30:01;10.50;99.90
33328;DHT22;19692;52.998;9.116;2023-04-25T13:32:36;10.00;99.90
33328;DHT22;19692;52.998;9.116;2023-04-25T13:35:03;9.60;99.90
33328;DHT22;19692;52.998;9.116;2023-04-25T13:37:30;8.60;99.90
33328;DHT22;19692;52.998;9.116;2023-04-25T13:40:02;7.80;99.90
33328;DHT22;19692;52.998;9.116;2023-04-25T13:42:30;7.20;99.90
33328;DHT22;19692;52.998;9.116;2023-04-25T13:44:56;7.10;99.90
33328;DHT22;19692;52.998;9.116;2023-04-25T13:47:22;7.10;99.90
33328;DHT22;19692;52.998;9.116;2023-04-25T13:49:49;7.20;99.90
33328;DHT22;19692;52.998;9.116;2023-04-25T13:52:15;7.50;99.90
33328;DHT22;19692;52.998;9.116;2023-04-25T13:54:41;7.90;99.90
33328;DHT22;19692;52.998;9.116;2023-04-25T13:57:07;8.70;99.90
33328;DHT22;19692;52.998;9.116;2023-04-25T13:59:33;9.40;99.90
33328;DHT22;19692;52.998;9.116;2023-04-25T14:01:59;10.10;99.90
33328;DHT22;19692;52.998;9.116;2023-04-25T14:04:24;10.30;99.90
33328;DHT22;19692;52.998;9.116;2023-04-25T14:06:51;10.40;99.90
33328;DHT22;19692;52.998;9.116;2023-04-25T14:09:18;10.40;99.90
33328;DHT22;19692;52.998;9.116;2023-04-25T14:11:45;10.30;99.90
33328;DHT22;19692;52.998;9.116;2023-04-25T14:14:11;10.50;99.90
33328;DHT22;19692;52.998;9.116;2023-04-25T14:16:37;10.10;99.90
33328;DHT22;19692;52.998;9.116;2023-04-25T14:19:03;10.20;99.90
33328;DHT22;19692;52.998;9.116;2023-04-25T14:21:29;10.50;99.90
33328;DHT22;19692;52.998;9.116;2023-04-25T14:23:57;10.60;99.90
33328;DHT22;19692;52.998;9.116;2023-04-25T14:26:23;10.70;99.90
33328;DHT22;19692;52.998;9.116;2023-04-25T14:28:51;10.10;99.90
33328;DHT22;19692;52.998;9.116;2023-04-25T14:31:17;9.90;99.90
33328;DHT22;19692;52.998;9.116;2023-04-25T14:33:42;9.50;99.90
33328;DHT22;19692;52.998;9.116;2023-04-25T14:36:09;9.40;99.90
33328;DHT22;19692;52.998;9.116;2023-04-25T14:38:35;9.40;99.90
33328;DHT22;19692;52.998;9.116;2023-04-25T14:41:01;9.90;99.90
33328;DHT22;19692;52.998;9.116;2023-04-25T14:43:27;10.10;99.90
33328;DHT22;19692;52.998;9.116;2023-04-25T14:45:53;10.30;99.90
33328;DHT22;19692;52.998;9.116;2023-04-25T14:48:19;10.30;99.90
33328;DHT22;19692;52.998;9.116;2023-04-25T14:50:45;10.40;99.90
33328;DHT22;19692;52.998;9.116;2023-04-25T14:53:12;10.30;99.90
33328;DHT22;19692;52.998;9.116;2023-04-25T14:55:38;10.20;99.90
33328;DHT22;19692;52.998;9.116;2023-04-25T14:58:04;9.80;99.90
33328;DHT22;19692;52.998;9.116;2023-04-25T15:00:30;9.20;99.90
33328;DHT22;19692;52.998;9.116;2023-04-25T15:02:57;8.50;99.90
33328;DHT22;19692;52.998;9.116;2023-04-25T15:05:24;8.10;99.90
33328;DHT22;19692;52.998;9.116;2023-04-25T15:07:49;7.80;99.90
33328;DHT22;19692;52.998;9.116;2023-04-25T15:10:17;7.70;99.90
33328;DHT22;19692;52.998;9.116;2023-04-25T15:12:44;7.70;99.90
33328;DHT22;19692;52.998;9.116;2023-04-25T15:15:10;7.30;99.90
33328;DHT22;19692;52.998;9.116;2023-04-25T15:17:41;7.10;99.90
33328;DHT22;19692;52.998;9.116;2023-04-25T15:20:10;7.10;99.90
33328;DHT22;19692;52.998;9.116;2023-04-25T15:22:37;7.20;99.90
33328;DHT22;19692;52.998;9.116;2023-04-25T15:25:04;7.40;99.90
33328;DHT22;19692;52.998;9.116;2023-04-25T15:27:30;7.60;99.90
33328;DHT22;19692;52.998;9.116;2023-04-25T15:29:56;7.80;99.90
33328;DHT22;19692;52.998;9.116;2023-04-25T15:32:21;7.80;99.90
33328;DHT22;19692;52.998;9.116;2023-04-25T15:34:48;8.10;99.90
33328;DHT22;19692;52.998;9.116;2023-04-25T15:37:15;8.40;99.90
33328;DHT22;19692;52.998;9.116;2023-04-25T15:39:40;8.60;99.90
33328;DHT22;19692;52.998;9.116;2023-04-25T15:42:07;8.50;99.90
33328;DHT22;19692;52.998;9.116;2023-04-25T15:44:33;8.30;99.90
33328;DHT22;19692;52.998;9.116;2023-04-25T15:46:58;8.10;99.90
33328;DHT22;19692;52.998;9.116;2023-04-25T15:49:24;7.90;99.90
33328;DHT22;19692;52.998;9.116;2023-04-25T15:51:50;7.90;99.90
33328;DHT22;19692;52.998;9.116;2023-04-25T15:54:17;7.90;99.90
33328;DHT22;19692;52.998;9.116;2023-04-25T15:56:43;7.70;99.90